sensor_id;sensor_type;location;lat;lon;timestamp;pressure;altitude;pressure_sealevel;temperature;humidity
11223;BME280;5668;52.012;8.724;2023-10-31T00:01:06;98052.00;;;15.20;100.00
11223;BME280;5668;52.012;8.724;2023-10-31T00:03:33;98051.00;;;15.21;100.00
11223;BME280;5668;52.012;8.724;2023-10-31T00:06:02;98057.22;;;15.20;100.00
11223;BME280;5668;52.012;8.724;2023-10-31T00:08:29;98051.59;;;15.16;100.00
11223;BME280;5668;52.012;8.724;2023-10-31T00:10:56;98060.84;;;15.19;100.00
11223;BME280;5668;52.012;8.724;2023-10-31T00:13:24;98048.78;;;15.18;100.00
11223;BME280;5668;52.012;8.724;2023-10-31T00:15:51;98052.41;;;15.17;100.00
11223;BME280;5668;52.012;8.724;2023-10-31T00:18:18;98048.34;;;15.14;100.00
11223;BME280;5668;52.012;8.724;2023-10-31T00:20:46;98024.59;;;15.16;100.00
11223;BME280;5668;52.012;8.724;2023-10-31T00:23:15;98025.41;;;15.16;100.00
11223;BME280;5668;52.012;8.724;2023-10-31T00:25:43;98019.75;;;15.13;100.00
11223;BME280;5668;52.012;8.724;2023-10-31T00:28:10;98019.75;;;15.13;100.00
11223;BME280;5668;52.012;8.724;2023-10-31T00:30:37;98021.38;;;15.14;100.00
11223;BME280;5668;52.012;8.724;2023-10-31T00:33:04;98018.13;;;15.11;100.00
11223;BME280;5668;52.012;8.724;2023-10-31T00:35:31;98019.16;;;15.10;100.00
11223;BME280;5668;52.012;8.724;2023-10-31T00:37:59;98019.75;;;15.13;100.00
11223;BME280;5668;52.012;8.724;2023-10-31T00:40:27;98024.97;;;15.13;100.00
11223;BME280;5668;52.012;8.724;2023-10-31T00:42:54;98027.00;;;15.10;100.00
11223;BME280;5668;52.012;8.724;2023-10-31T00:45:24;98018.13;;;15.11;100.00
11223;BME280;5668;52.012;8.724;2023-10-31T00:47:51;98023.34;;;15.11;100.00
11223;BME280;5668;52.012;8.724;2023-10-31T00:50:19;98023.94;;;15.07;100.00
11223;BME280;5668;52.012;8.724;2023-10-31T00:52:46;98028.81;;;15.10;100.00
11223;BME280;5668;52.012;8.724;2023-10-31T00:55:14;98032.22;;;15.10;100.00
11223;BME280;5668;52.012;8.724;2023-10-31T00:57:42;98025.56;;;15.08;100.00
11223;BME280;5668;52.012;8.724;2023-10-31T01:00:10;98020.53;;;15.06;100.00
11223;BME280;5668;52.012;8.724;2023-10-31T01:02:37;98025.38;;;15.09;100.00
11223;BME280;5668;52.012;8.724;2023-10-31T01:05:05;98020.16;;;15.09;100.00
11223;BME280;5668;52.012;8.724;2023-10-31T01:07:32;98021.78;;;15.10;100.00
11223;BME280;5668;52.012;8.724;2023-10-31T01:09:59;98024.78;;;15.14;100.00
11223;BME280;5668;52.012;8.724;2023-10-31T01:12:27;98012.31;;;15.09;100.00
11223;BME280;5668;52.012;8.724;2023-10-31T01:14:55;98013.66;;;15.05;100.00
11223;BME280;5668;52.012;8.724;2023-10-31T01:17:23;98020.34;;;15.49;100.00
11223;BME280;5668;52.012;8.724;2023-10-31T01:19:50;98012.41;;;15.29;100.00
11223;BME280;5668;52.012;8.724;2023-10-31T01:22:17;98016.97;;;15.21;100.00
11223;BME280;5668;52.012;8.724;2023-10-31T01:24:44;98017.97;;;15.20;100.00
11223;BME280;5668;52.012;8.724;2023-10-31T01:27:11;98018.59;;;15.22;100.00
11223;BME280;5668;52.012;8.724;2023-10-31T01:29:38;98023.81;;;15.22;100.00
11223;BME280;5668;52.012;8.724;2023-10-31T01:32:07;98017.16;;;15.19;100.00
11223;BME280;5668;52.012;8.724;2023-10-31T01:34:34;98025.00;;;15.19;100.00
11223;BME280;5668;52.012;8.724;2023-10-31T01:37:02;98024.19;;;15.19;100.00
11223;BME280;5668;52.012;8.724;2023-10-31T01:39:29;98020.59;;;15.20;100.00
11223;BME280;5668;52.012;8.724;2023-10-31T01:41:56;98027.44;;;15.21;100.00
11223;BME280;5668;52.012;8.724;2023-10-31T01:44:23;98017.38;;;15.18;100.00
11223;BME280;5668;52.012;8.724;2023-10-31T01:46:50;98013.97;;;15.17;100.00
11223;BME280;5668;52.012;8.724;2023-10-31T01:49:19;98014.13;;;15.16;100.00
11223;BME280;5668;52.012;8.724;2023-10-31T01:51:46;98016.75;;;15.16;100.00
11223;BME280;5668;52.012;8.724;2023-10-31T01:54:15;98016.94;;;15.14;100.00
11223;BME280;5668;52.012;8.724;2023-10-31T01:56:42;98013.28;;;15.08;100.00
11223;BME280;5668;52.012;8.724;2023-10-31T01:59:10;98008.25;;;15.07;100.00
11223;BME280;5668;52.012;8.724;2023-10-31T02:01:38;98011.06;;;15.05;100.00
11223;BME280;5668;52.012;8.724;2023-10-31T02:04:06;98025.72;;;15.00;100.00
11223;BME280;5668;52.012;8.724;2023-10-31T02:06:34;98022.44;;;14.91;100.00
11223;BME280;5668;52.012;8.724;2023-10-31T02:09:02;98024.44;;;14.89;100.00
11223;BME280;5668;52.012;8.724;2023-10-31T02:11:29;98014.38;;;14.86;100.00
11223;BME280;5668;52.012;8.724;2023-10-31T02:13:56;98027.19;;;14.81;100.00
11223;BME280;5668;52.012;8.724;2023-10-31T02:16:23;98021.09;;;14.74;100.00
11223;BME280;5668;52.012;8.724;2023-10-31T02:18:51;98025.09;;;14.70;100.00
11223;BME280;5668;52.012;8.724;2023-10-31T02:21:20;98030.28;;;14.63;100.00
11223;BME280;5668;52.012;8.724;2023-10-31T02:23:57;98047.38;;;14.66;100.00
11223;BME280;5668;52.012;8.724;2023-10-31T02:26:29;98041.91;;;14.61;100.00
11223;BME280;5668;52.012;8.724;2023-10-31T02:28:56;98044.28;;;14.56;100.00
11223;BME280;5668;52.012;8.724;2023-10-31T02:31:24;98045.66;;;14.52;100.00
11223;BME280;5668;52.012;8.724;2023-10-31T02:33:51;98051.91;;;14.51;100.00
11223;BME280;5668;52.012;8.724;2023-10-31T02:36:18;98064.69;;;14.46;100.00
11223;BME280;5668;52.012;8.724;2023-10-31T02:38:46;98051.63;;;14.46;100.00
11223;BME280;5668;52.012;8.724;2023-10-31T02:41:15;98066.31;;;14.47;100.00
11223;BME280;5668;52.012;8.724;2023-10-31T02:43:42;98072.38;;;14.47;100.00
11223;BME280;5668;52.012;8.724;2023-10-31T02:46:10;98071.31;;;14.42;99.79
11223;BME280;5668;52.012;8.724;2023-10-31T02:48:38;98064.97;;;14.36;99.87
11223;BME280;5668;52.012;8.724;2023-10-31T02:51:06;98074.66;;;14.36;99.51
11223;BME280;5668;52.012;8.724;2023-10-31T02:53:34;98075.00;;;14.32;98.77
11223;BME280;5668;52.012;8.724;2023-10-31T02:56:01;98071.94;;;14.29;98.16
11223;BME280;5668;52.012;8.724;2023-10-31T02:58:30;98090.44;;;14.27;98.09
11223;BME280;5668;52.012;8.724;2023-10-31T03:00:57;98084.94;;;14.22;97.55
11223;BME280;5668;52.012;8.724;2023-10-31T03:03:24;98076.69;;;14.19;96.90
11223;BME280;5668;52.012;8.724;2023-10-31T03:05:52;98093.53;;;14.16;97.02
11223;BME280;5668;52.012;8.724;2023-10-31T03:08:19;98084.44;;;14.12;96.77
11223;BME280;5668;52.012;8.724;2023-10-31T03:10:48;98093.28;;;14.11;96.73
11223;BME280;5668;52.012;8.724;2023-10-31T03:13:17;98102.47;;;14.07;96.76
11223;BME280;5668;52.012;8.724;2023-10-31T03:15:47;98088.78;;;14.05;96.47
11223;BME280;5668;52.012;8.724;2023-10-31T03:18:14;98098.78;;;14.02;96.27
11223;BME280;5668;52.012;8.724;2023-10-31T03:20:44;98105.81;;;14.01;95.99
11223;BME280;5668;52.012;8.724;2023-10-31T03:23:12;98101.97;;;13.97;96.12
11223;BME280;5668;52.012;8.724;2023-10-31T03:25:39;98105.56;;;13.96;95.95
11223;BME280;5668;52.012;8.724;2023-10-31T03:28:17;98106.53;;;13.95;95.72
11223;BME280;5668;52.012;8.724;2023-10-31T03:30:47;98114.38;;;13.95;96.33
11223;BME280;5668;52.012;8.724;2023-10-31T03:33:15;98111.13;;;13.93;95.70
11223;BME280;5668;52.012;8.724;2023-10-31T03:35:43;98127.19;;;13.90;95.33
11223;BME280;5668;52.012;8.724;2023-10-31T03:38:10;98122.31;;;13.87;94.89
11223;BME280;5668;52.012;8.724;2023-10-31T03:40:37;98135.94;;;13.82;94.59
11223;BME280;5668;52.012;8.724;2023-10-31T03:43:05;98135.72;;;13.84;94.35
11223;BME280;5668;52.012;8.724;2023-10-31T03:45:32;98143.13;;;13.80;94.49
11223;BME280;5668;52.012;8.724;2023-10-31T03:48:00;98135.03;;;13.75;94.55
11223;BME280;5668;52.012;8.724;2023-10-31T03:50:28;98150.50;;;13.77;94.56
11223;BME280;5668;52.012;8.724;2023-10-31T03:52:55;98150.56;;;13.69;93.33
11223;BME280;5668;52.012;8.724;2023-10-31T03:55:22;98153.00;;;13.70;92.96
11223;BME280;5668;52.012;8.724;2023-10-31T03:57:49;98141.75;;;13.70;93.19
11223;BME280;5668;52.012;8.724;2023-10-31T04:00:17;98163.03;;;13.67;92.41
11223;BME280;5668;52.012;8.724;2023-10-31T04:02:44;98167.44;;;13.66;92.55
11223;BME280;5668;52.012;8.724;2023-10-31T04:05:13;98158.16;;;13.64;91.49
11223;BME280;5668;52.012;8.724;2023-10-31T04:07:40;98163.19;;;13.65;91.31
11223;BME280;5668;52.012;8.724;2023-10-31T04:10:08;98174.53;;;13.57;90.74
11223;BME280;5668;52.012;8.724;2023-10-31T04:12:37;98159.22;;;13.54;91.11
11223;BME280;5668;52.012;8.724;2023-10-31T04:15:05;98171.44;;;13.54;90.75
11223;BME280;5668;52.012;8.724;2023-10-31T04:17:32;98169.03;;;13.52;91.40
11223;BME280;5668;52.012;8.724;2023-10-31T04:19:59;98174.25;;;13.52;91.27
11223;BME280;5668;52.012;8.724;2023-10-31T04:22:28;98188.13;;;13.53;91.67
11223;BME280;5668;52.012;8.724;2023-10-31T04:24:56;98179.47;;;13.52;92.26
11223;BME280;5668;52.012;8.724;2023-10-31T04:27:23;98190.91;;;13.51;92.51
11223;BME280;5668;52.012;8.724;2023-10-31T04:29:50;98199.72;;;13.50;92.48
11223;BME280;5668;52.012;8.724;2023-10-31T04:32:17;98201.03;;;13.46;92.76
11223;BME280;5668;52.012;8.724;2023-10-31T04:34:44;98194.41;;;13.44;92.71
11223;BME280;5668;52.012;8.724;2023-10-31T04:37:11;98197.19;;;13.42;92.94
11223;BME280;5668;52.012;8.724;2023-10-31T04:39:40;98195.72;;;13.40;92.95
11223;BME280;5668;52.012;8.724;2023-10-31T04:42:07;98212.19;;;13.40;93.34
11223;BME280;5668;52.012;8.724;2023-10-31T04:44:34;98201.31;;;13.37;92.75
11223;BME280;5668;52.012;8.724;2023-10-31T04:47:02;98223.50;;;13.33;92.66
11223;BME280;5668;52.012;8.724;2023-10-31T04:49:29;98208.66;;;13.33;92.73
11223;BME280;5668;52.012;8.724;2023-10-31T04:51:56;98216.06;;;13.30;92.43
11223;BME280;5668;52.012;8.724;2023-10-31T04:54:23;98216.22;;;13.28;92.97
11223;BME280;5668;52.012;8.724;2023-10-31T04:56:52;98222.25;;;13.29;93.00
11223;BME280;5668;52.012;8.724;2023-10-31T04:59:19;98234.47;;;13.28;92.53
11223;BME280;5668;52.012;8.724;2023-10-31T05:01:49;98243.28;;;13.27;92.95
11223;BME280;5668;52.012;8.724;2023-10-31T05:04:17;98243.47;;;13.26;92.76
11223;BME280;5668;52.012;8.724;2023-10-31T05:06:44;98247.88;;;13.25;93.11
11223;BME280;5668;52.012;8.724;2023-10-31T05:09:13;98253.72;;;13.27;92.81
11223;BME280;5668;52.012;8.724;2023-10-31T05:11:40;98258.78;;;13.29;93.63
11223;BME280;5668;52.012;8.724;2023-10-31T05:14:09;98253.09;;;13.25;93.36
11223;BME280;5668;52.012;8.724;2023-10-31T05:16:40;98257.66;;;13.23;93.65
11223;BME280;5668;52.012;8.724;2023-10-31T05:19:08;98253.44;;;13.22;93.71
11223;BME280;5668;52.012;8.724;2023-10-31T05:21:35;98260.25;;;13.23;94.04
11223;BME280;5668;52.012;8.724;2023-10-31T05:24:03;98264.50;;;13.24;94.22
11223;BME280;5668;52.012;8.724;2023-10-31T05:26:30;98264.50;;;13.24;94.39
11223;BME280;5668;52.012;8.724;2023-10-31T05:28:58;98270.69;;;13.23;94.20
11223;BME280;5668;52.012;8.724;2023-10-31T05:31:26;98274.31;;;13.22;94.70
11223;BME280;5668;52.012;8.724;2023-10-31T05:33:54;98277.53;;;13.24;94.24
11223;BME280;5668;52.012;8.724;2023-10-31T05:36:22;98279.97;;;13.26;94.89
11223;BME280;5668;52.012;8.724;2023-10-31T05:38:49;98276.94;;;13.22;94.44
11223;BME280;5668;52.012;8.724;2023-10-31T05:41:17;98288.34;;;13.21;94.18
11223;BME280;5668;52.012;8.724;2023-10-31T05:43:44;98291.13;;;13.20;94.69
11223;BME280;5668;52.012;8.724;2023-10-31T05:46:11;98297.47;;;13.17;94.61
11223;BME280;5668;52.012;8.724;2023-10-31T05:48:43;98292.09;;;13.18;94.64
11223;BME280;5668;52.012;8.724;2023-10-31T05:51:14;98299.59;;;13.22;95.45
11223;BME280;5668;52.012;8.724;2023-10-31T05:53:43;98295.53;;;13.19;95.07
11223;BME280;5668;52.012;8.724;2023-10-31T05:56:11;98298.13;;;13.19;95.50
11223;BME280;5668;52.012;8.724;2023-10-31T05:58:39;98303.19;;;13.21;96.07
11223;BME280;5668;52.012;8.724;2023-10-31T06:01:06;98296.16;;;13.21;96.19
11223;BME280;5668;52.012;8.724;2023-10-31T06:03:34;98297.59;;;13.24;95.70
11223;BME280;5668;52.012;8.724;2023-10-31T06:06:03;98296.16;;;13.21;96.56
11223;BME280;5668;52.012;8.724;2023-10-31T06:08:30;98296.00;;;13.23;96.46
11223;BME280;5668;52.012;8.724;2023-10-31T06:10:59;98302.66;;;13.25;96.68
11223;BME280;5668;52.012;8.724;2023-10-31T06:13:26;98300.19;;;13.24;96.69
11223;BME280;5668;52.012;8.724;2023-10-31T06:15:54;98303.63;;;13.24;96.66
11223;BME280;5668;52.012;8.724;2023-10-31T06:18:22;98310.31;;;13.27;96.87
11223;BME280;5668;52.012;8.724;2023-10-31T06:20:49;98304.59;;;13.23;96.67
11223;BME280;5668;52.012;8.724;2023-10-31T06:23:17;98302.38;;;13.20;97.35
11223;BME280;5668;52.012;8.724;2023-10-31T06:25:45;98307.59;;;13.20;97.00
11223;BME280;5668;52.012;8.724;2023-10-31T06:28:12;98305.94;;;13.19;97.46
11223;BME280;5668;52.012;8.724;2023-10-31T06:30:39;98298.94;;;13.20;97.80
11223;BME280;5668;52.012;8.724;2023-10-31T06:33:06;98302.38;;;13.20;97.57
11223;BME280;5668;52.012;8.724;2023-10-31T06:35:34;98300.41;;;13.22;97.26
11223;BME280;5668;52.012;8.724;2023-10-31T06:38:02;98302.81;;;13.24;97.62
11223;BME280;5668;52.012;8.724;2023-10-31T06:40:31;98305.91;;;13.27;97.37
11223;BME280;5668;52.012;8.724;2023-10-31T06:42:58;98302.31;;;13.28;97.09
11223;BME280;5668;52.012;8.724;2023-10-31T06:45:26;98308.97;;;13.31;97.16
11223;BME280;5668;52.012;8.724;2023-10-31T06:47:53;98309.09;;;13.37;97.00
11223;BME280;5668;52.012;8.724;2023-10-31T06:50:21;98315.91;;;13.38;96.63
11223;BME280;5668;52.012;8.724;2023-10-31T06:52:48;98310.09;;;13.36;96.55
11223;BME280;5668;52.012;8.724;2023-10-31T06:55:16;98316.28;;;13.35;96.61
11223;BME280;5668;52.012;8.724;2023-10-31T06:57:44;98317.44;;;13.33;96.50
11223;BME280;5668;52.012;8.724;2023-10-31T07:00:12;98324.44;;;13.32;96.73
11223;BME280;5668;52.012;8.724;2023-10-31T07:02:39;98319.88;;;13.34;96.35
11223;BME280;5668;52.012;8.724;2023-10-31T07:05:07;98324.28;;;13.34;96.69
11223;BME280;5668;52.012;8.724;2023-10-31T07:07:34;98322.66;;;13.33;97.45
11223;BME280;5668;52.012;8.724;2023-10-31T07:10:02;98326.06;;;13.33;97.66
11223;BME280;5668;52.012;8.724;2023-10-31T07:12:29;98323.00;;;13.30;98.52
11223;BME280;5668;52.012;8.724;2023-10-31T07:14:59;98324.16;;;13.27;98.99
11223;BME280;5668;52.012;8.724;2023-10-31T07:17:26;98333.13;;;13.25;99.11
11223;BME280;5668;52.012;8.724;2023-10-31T07:19:53;98335.47;;;13.20;98.95
11223;BME280;5668;52.012;8.724;2023-10-31T07:22:20;98343.28;;;13.20;99.79
11223;BME280;5668;52.012;8.724;2023-10-31T07:24:50;98354.84;;;13.17;99.57
11223;BME280;5668;52.012;8.724;2023-10-31T07:27:18;98358.44;;;13.16;99.64
11223;BME280;5668;52.012;8.724;2023-10-31T07:29:45;98372.31;;;13.16;99.83
11223;BME280;5668;52.012;8.724;2023-10-31T07:32:14;98371.50;;;13.16;100.00
11223;BME280;5668;52.012;8.724;2023-10-31T07:34:42;98370.88;;;13.14;100.00
11223;BME280;5668;52.012;8.724;2023-10-31T07:37:10;98384.38;;;13.09;100.00
11223;BME280;5668;52.012;8.724;2023-10-31T07:39:37;98379.53;;;13.06;100.00
11223;BME280;5668;52.012;8.724;2023-10-31T07:42:04;98382.28;;;13.05;100.00
11223;BME280;5668;52.012;8.724;2023-10-31T07:44:32;98390.75;;;13.07;100.00
11223;BME280;5668;52.012;8.724;2023-10-31T07:46:59;98384.91;;;13.05;100.00
11223;BME280;5668;52.012;8.724;2023-10-31T07:49:28;98390.75;;;13.07;100.00
11223;BME280;5668;52.012;8.724;2023-10-31T07:51:55;98392.88;;;13.03;100.00
11223;BME280;5668;52.012;8.724;2023-10-31T07:54:23;98391.78;;;12.98;100.00
11223;BME280;5668;52.012;8.724;2023-10-31T07:56:50;98398.78;;;12.97;100.00
11223;BME280;5668;52.012;8.724;2023-10-31T07:59:17;98402.53;;;12.95;100.00
11223;BME280;5668;52.012;8.724;2023-10-31T08:01:44;98407.28;;;12.91;100.00
11223;BME280;5668;52.012;8.724;2023-10-31T08:04:13;98408.91;;;12.92;100.00
11223;BME280;5668;52.012;8.724;2023-10-31T08:06:43;98425.03;;;12.88;100.00
11223;BME280;5668;52.012;8.724;2023-10-31T08:09:10;98430.41;;;12.86;100.00
11223;BME280;5668;52.012;8.724;2023-10-31T08:11:38;98424.41;;;12.86;99.75
11223;BME280;5668;52.012;8.724;2023-10-31T08:14:05;98445.25;;;12.86;100.00
11223;BME280;5668;52.012;8.724;2023-10-31T08:16:32;98441.66;;;12.87;99.80
11223;BME280;5668;52.012;8.724;2023-10-31T08:19:00;98455.69;;;12.86;99.62
11223;BME280;5668;52.012;8.724;2023-10-31T08:21:27;98450.66;;;12.84;99.58
11223;BME280;5668;52.012;8.724;2023-10-31T08:24:01;98455.88;;;12.84;99.01
11223;BME280;5668;52.012;8.724;2023-10-31T08:26:28;98453.88;;;12.86;99.23
11223;BME280;5668;52.012;8.724;2023-10-31T08:28:55;98467.75;;;12.87;99.17
11223;BME280;5668;52.012;8.724;2023-10-31T08:31:22;98465.31;;;12.85;98.70
11223;BME280;5668;52.012;8.724;2023-10-31T08:33:49;98474.56;;;12.88;99.41
11223;BME280;5668;52.012;8.724;2023-10-31T08:36:16;98471.31;;;12.86;98.87
11223;BME280;5668;52.012;8.724;2023-10-31T08:38:44;98478.16;;;12.87;98.78
11223;BME280;5668;52.012;8.724;2023-10-31T08:41:12;98485.00;;;12.88;98.69
11223;BME280;5668;52.012;8.724;2023-10-31T08:43:44;98492.84;;;12.88;98.99
11223;BME280;5668;52.012;8.724;2023-10-31T08:46:12;98486.63;;;12.89;99.00
11223;BME280;5668;52.012;8.724;2023-10-31T08:48:39;98489.09;;;12.90;99.25
11223;BME280;5668;52.012;8.724;2023-10-31T08:51:06;98493.94;;;12.93;99.45
11223;BME280;5668;52.012;8.724;2023-10-31T08:53:34;98503.91;;;12.98;99.24
11223;BME280;5668;52.012;8.724;2023-10-31T08:56:01;98506.66;;;12.96;98.85
11223;BME280;5668;52.012;8.724;2023-10-31T08:58:29;98511.72;;;12.98;98.23
11223;BME280;5668;52.012;8.724;2023-10-31T09:00:57;98504.22;;;12.95;98.30
11223;BME280;5668;52.012;8.724;2023-10-31T09:03:24;98510.91;;;12.97;98.75
11223;BME280;5668;52.012;8.724;2023-10-31T09:05:51;98512.53;;;12.98;99.01
11223;BME280;5668;52.012;8.724;2023-10-31T09:08:18;98518.41;;;13.00;98.96
11223;BME280;5668;52.012;8.724;2023-10-31T09:10:45;98516.59;;;13.01;98.50
11223;BME280;5668;52.012;8.724;2023-10-31T09:13:14;98516.59;;;13.01;98.42
11223;BME280;5668;52.012;8.724;2023-10-31T09:15:42;98519.84;;;13.03;98.44
11223;BME280;5668;52.012;8.724;2023-10-31T09:18:11;98536.00;;;13.06;97.87
11223;BME280;5668;52.012;8.724;2023-10-31T09:20:39;98532.56;;;13.06;97.85
11223;BME280;5668;52.012;8.724;2023-10-31T09:23:06;98542.03;;;13.07;98.17
11223;BME280;5668;52.012;8.724;2023-10-31T09:25:33;98555.69;;;13.09;98.25
11223;BME280;5668;52.012;8.724;2023-10-31T09:28:01;98557.03;;;13.13;98.20
11223;BME280;5668;52.012;8.724;2023-10-31T09:30:28;98561.91;;;13.16;97.36
11223;BME280;5668;52.012;8.724;2023-10-31T09:32:56;98560.75;;;13.18;97.05
11223;BME280;5668;52.012;8.724;2023-10-31T09:35:24;98568.88;;;13.24;97.49
11223;BME280;5668;52.012;8.724;2023-10-31T09:37:52;98572.00;;;13.27;97.39
11223;BME280;5668;52.012;8.724;2023-10-31T09:40:20;98582.09;;;13.30;96.83
11223;BME280;5668;52.012;8.724;2023-10-31T09:42:48;98581.09;;;13.31;96.92
11223;BME280;5668;52.012;8.724;2023-10-31T09:45:16;98578.81;;;13.36;96.92
11223;BME280;5668;52.012;8.724;2023-10-31T09:47:44;98582.41;;;13.35;97.21
11223;BME280;5668;52.012;8.724;2023-10-31T09:50:14;98588.09;;;13.39;97.26
11223;BME280;5668;52.012;8.724;2023-10-31T09:52:42;98593.31;;;13.39;96.70
11223;BME280;5668;52.012;8.724;2023-10-31T09:55:09;98588.28;;;13.37;96.98
11223;BME280;5668;52.012;8.724;2023-10-31T09:57:37;98603.13;;;13.37;96.57
11223;BME280;5668;52.012;8.724;2023-10-31T10:00:06;98600.31;;;13.38;96.60
11223;BME280;5668;52.012;8.724;2023-10-31T10:02:33;98612.38;;;13.39;96.39
11223;BME280;5668;52.012;8.724;2023-10-31T10:05:00;98614.69;;;13.42;97.12
11223;BME280;5668;52.012;8.724;2023-10-31T10:07:29;98615.50;;;13.43;97.01
11223;BME280;5668;52.012;8.724;2023-10-31T10:09:56;98615.34;;;13.44;96.98
11223;BME280;5668;52.012;8.724;2023-10-31T10:12:24;98623.16;;;13.44;96.78
11223;BME280;5668;52.012;8.724;2023-10-31T10:14:53;98618.91;;;13.43;96.40
11223;BME280;5668;52.012;8.724;2023-10-31T10:17:22;98628.38;;;13.44;97.05
11223;BME280;5668;52.012;8.724;2023-10-31T10:20:06;98623.16;;;13.44;96.60
11223;BME280;5668;52.012;8.724;2023-10-31T10:22:40;98626.22;;;13.48;97.50
11223;BME280;5668;52.012;8.724;2023-10-31T10:25:08;98631.28;;;13.49;97.36
11223;BME280;5668;52.012;8.724;2023-10-31T10:27:37;98628.34;;;13.52;96.76
11223;BME280;5668;52.012;8.724;2023-10-31T10:30:07;98639.44;;;13.54;96.76
11223;BME280;5668;52.012;8.724;2023-10-31T10:32:35;98629.66;;;13.56;96.79
11223;BME280;5668;52.012;8.724;2023-10-31T10:35:02;98639.25;;;13.56;96.28
11223;BME280;5668;52.012;8.724;2023-10-31T10:37:30;98650.38;;;13.58;96.72
11223;BME280;5668;52.012;8.724;2023-10-31T10:39:59;98654.75;;;13.57;96.35
11223;BME280;5668;52.012;8.724;2023-10-31T10:42:32;98654.75;;;13.57;96.43
11223;BME280;5668;52.012;8.724;2023-10-31T10:45:03;98659.97;;;13.57;96.18
11223;BME280;5668;52.012;8.724;2023-10-31T10:47:31;98660.16;;;13.56;96.56
11223;BME280;5668;52.012;8.724;2023-10-31T10:50:00;98654.75;;;13.57;96.47
11223;BME280;5668;52.012;8.724;2023-10-31T10:52:30;98654.75;;;13.57;96.89
11223;BME280;5668;52.012;8.724;2023-10-31T10:55:11;98664.38;;;13.57;96.92
11223;BME280;5668;52.012;8.724;2023-10-31T10:57:42;98664.22;;;13.59;98.01
11223;BME280;5668;52.012;8.724;2023-10-31T11:00:14;98671.09;;;13.60;98.31
11223;BME280;5668;52.012;8.724;2023-10-31T11:02:43;98670.09;;;13.61;98.40
11223;BME280;5668;52.012;8.724;2023-10-31T11:05:11;98667.50;;;13.61;98.67
11223;BME280;5668;52.012;8.724;2023-10-31T11:07:39;98668.47;;;13.60;98.66
11223;BME280;5668;52.012;8.724;2023-10-31T11:10:09;98676.09;;;13.61;99.12
11223;BME280;5668;52.012;8.724;2023-10-31T11:12:38;98678.91;;;13.60;99.31
11223;BME280;5668;52.012;8.724;2023-10-31T11:15:06;98685.94;;;13.59;99.15
11223;BME280;5668;52.012;8.724;2023-10-31T11:17:38;98677.94;;;13.61;99.56
11223;BME280;5668;52.012;8.724;2023-10-31T11:20:11;98684.13;;;13.60;99.29
11223;BME280;5668;52.012;8.724;2023-10-31T11:22:41;98689.66;;;13.56;99.30
11223;BME280;5668;52.012;8.724;2023-10-31T11:25:13;98696.22;;;13.61;99.92
11223;BME280;5668;52.012;8.724;2023-10-31T11:27:41;98692.94;;;13.59;99.92
11223;BME280;5668;52.012;8.724;2023-10-31T11:30:20;98697.00;;;13.61;100.00
11223;BME280;5668;52.012;8.724;2023-10-31T11:32:48;98698.97;;;13.59;99.89
11223;BME280;5668;52.012;8.724;2023-10-31T11:35:17;98700.13;;;13.56;99.84
11223;BME280;5668;52.012;8.724;2023-10-31T11:37:48;98709.41;;;13.59;100.00
11223;BME280;5668;52.012;8.724;2023-10-31T11:40:22;98707.78;;;13.58;100.00
11223;BME280;5668;52.012;8.724;2023-10-31T11:42:50;98706.00;;;13.59;100.00
11223;BME280;5668;52.012;8.724;2023-10-31T11:45:29;98712.19;;;13.57;100.00
11223;BME280;5668;52.012;8.724;2023-10-31T11:47:57;98712.84;;;13.60;100.00
11223;BME280;5668;52.012;8.724;2023-10-31T11:50:25;98712.19;;;13.57;100.00
11223;BME280;5668;52.012;8.724;2023-10-31T11:53:03;98713.47;;;13.62;100.00
11223;BME280;5668;52.012;8.724;2023-10-31T11:55:34;98717.41;;;13.66;100.00
11223;BME280;5668;52.012;8.724;2023-10-31T11:58:19;98719.84;;;13.67;100.00
11223;BME280;5668;52.012;8.724;2023-10-31T12:00:47;98724.88;;;13.69;100.00
11223;BME280;5668;52.012;8.724;2023-10-31T12:03:16;98717.72;;;13.71;100.00
11223;BME280;5668;52.012;8.724;2023-10-31T12:05:54;98719.66;;;13.69;100.00
11223;BME280;5668;52.012;8.724;2023-10-31T12:08:26;98720.97;;;13.73;100.00
11223;BME280;5668;52.012;8.724;2023-10-31T12:11:04;98722.44;;;13.75;100.00
11223;BME280;5668;52.012;8.724;2023-10-31T12:13:31;98723.56;;;13.81;100.00
11223;BME280;5668;52.012;8.724;2023-10-31T12:15:58;98725.19;;;13.82;100.00
11223;BME280;5668;52.012;8.724;2023-10-31T12:18:26;98740.19;;;13.88;100.00
11223;BME280;5668;52.012;8.724;2023-10-31T12:20:54;98732.19;;;13.89;100.00
11223;BME280;5668;52.012;8.724;2023-10-31T12:23:21;98737.06;;;13.92;100.00
11223;BME280;5668;52.012;8.724;2023-10-31T12:25:49;98734.31;;;13.94;100.00
11223;BME280;5668;52.012;8.724;2023-10-31T12:28:22;98733.31;;;13.95;100.00
11223;BME280;5668;52.012;8.724;2023-10-31T12:30:51;98740.19;;;13.96;100.00
11223;BME280;5668;52.012;8.724;2023-10-31T12:33:21;98741.97;;;13.95;100.00
11223;BME280;5668;52.012;8.724;2023-10-31T12:35:52;98744.09;;;13.92;100.00
11223;BME280;5668;52.012;8.724;2023-10-31T12:38:20;98745.06;;;13.91;100.00
11223;BME280;5668;52.012;8.724;2023-10-31T12:40:47;98740.84;;;13.90;100.00
11223;BME280;5668;52.012;8.724;2023-10-31T12:43:16;98733.03;;;13.90;100.00
11223;BME280;5668;52.012;8.724;2023-10-31T12:45:45;98738.06;;;13.91;100.00
11223;BME280;5668;52.012;8.724;2023-10-31T12:48:12;98733.31;;;13.95;100.00
11223;BME280;5668;52.012;8.724;2023-10-31T12:50:39;98735.63;;;13.98;100.00
11223;BME280;5668;52.012;8.724;2023-10-31T12:53:07;98733.97;;;13.97;100.00
11223;BME280;5668;52.012;8.724;2023-10-31T12:55:38;98744.06;;;14.00;100.00
11223;BME280;5668;52.012;8.724;2023-10-31T12:58:07;98741.47;;;14.00;100.00
11223;BME280;5668;52.012;8.724;2023-10-31T13:00:36;98756.97;;;14.02;100.00
11223;BME280;5668;52.012;8.724;2023-10-31T13:03:07;98761.38;;;14.01;100.00
11223;BME280;5668;52.012;8.724;2023-10-31T13:05:35;98768.25;;;14.02;100.00
11223;BME280;5668;52.012;8.724;2023-10-31T13:08:02;98764.16;;;14.00;99.80
11223;BME280;5668;52.012;8.724;2023-10-31T13:10:31;98770.19;;;14.00;99.84
11223;BME280;5668;52.012;8.724;2023-10-31T13:12:59;98769.22;;;14.01;99.69